createdAt,value
2018-08-17T00:02:02.099Z,59.33
2018-08-17T00:04:30.510Z,59.29
2018-08-17T00:06:58.927Z,59.44
2018-08-17T00:09:27.367Z,59.85
2018-08-17T00:11:55.771Z,59.22
2018-08-17T00:14:24.327Z,59.78
2018-08-17T00:16:52.677Z,59.81
2018-08-17T00:19:21.089Z,60.26
2018-08-17T00:21:49.560Z,61.00
2018-08-17T00:24:17.948Z,61.56
2018-08-17T00:26:46.354Z,61.84
2018-08-17T00:29:15.116Z,61.37
2018-08-17T00:31:43.496Z,61.13
2018-08-17T00:34:11.888Z,61.09
2018-08-17T00:36:40.440Z,61.24
2018-08-17T00:39:10.128Z,61.24
2018-08-17T00:41:38.712Z,61.30
2018-08-17T00:44:07.320Z,61.67
2018-08-17T00:46:35.632Z,61.01
2018-08-17T00:49:04.156Z,61.19
2018-08-17T00:51:32.668Z,60.75
2018-08-17T00:54:01.220Z,61.20
2018-08-17T00:56:30.567Z,61.65
2018-08-17T00:58:58.948Z,61.83
2018-08-17T01:01:27.628Z,62.41
2018-08-17T01:03:55.956Z,62.63
2018-08-17T01:06:24.464Z,61.98
2018-08-17T01:08:52.904Z,62.13
2018-08-17T01:11:21.386Z,61.95
2018-08-17T01:13:49.917Z,62.37
2018-08-17T01:16:18.238Z,62.17
2018-08-17T01:18:46.559Z,62.22
2018-08-17T01:21:14.931Z,62.03
2018-08-17T01:23:43.328Z,62.35
2018-08-17T01:26:11.659Z,62.25
2018-08-17T01:28:40.031Z,62.39
2018-08-17T01:31:08.370Z,62.25
2018-08-17T01:33:36.751Z,61.88
2018-08-17T01:36:05.098Z,61.84
2018-08-17T01:38:33.404Z,61.63
2018-08-17T01:41:01.772Z,61.25
2018-08-17T01:43:30.359Z,61.35
2018-08-17T01:45:58.731Z,60.84
2018-08-17T01:48:27.100Z,60.75
2018-08-17T01:50:55.609Z,60.76
2018-08-17T01:53:23.933Z,60.72
2018-08-17T01:55:52.345Z,61.01
2018-08-17T01:58:20.702Z,60.98
2018-08-17T02:00:49.171Z,61.21
2018-08-17T02:03:17.740Z,61.99
2018-08-17T02:05:46.367Z,62.46
2018-08-17T02:08:14.719Z,62.62
2018-08-17T02:10:43.132Z,62.78
2018-08-17T02:13:11.651Z,61.86
2018-08-17T02:15:39.985Z,61.88
2018-08-17T02:18:08.523Z,62.52
2018-08-17T02:20:37.133Z,61.97
2018-08-17T02:23:05.459Z,62.44
2018-08-17T02:25:33.810Z,62.66
2018-08-17T02:28:02.391Z,62.82
2018-08-17T02:30:30.784Z,62.81
2018-08-17T02:32:59.164Z,62.81
2018-08-17T02:35:27.626Z,63.00
2018-08-17T02:37:56.003Z,62.38
2018-08-17T02:40:24.371Z,62.61
2018-08-17T02:42:52.954Z,62.29
2018-08-17T02:45:21.286Z,62.12
2018-08-17T02:47:49.749Z,62.40
2018-08-17T02:50:18.211Z,62.58
2018-08-17T02:52:46.611Z,62.92
2018-08-17T02:55:14.958Z,62.43
2018-08-17T02:57:43.541Z,62.38
2018-08-17T03:00:11.963Z,62.80
2018-08-17T03:02:40.321Z,63.13
2018-08-17T03:05:09.373Z,63.30
2018-08-17T03:07:37.735Z,63.35
2018-08-17T03:10:06.103Z,63.85
2018-08-17T03:12:34.455Z,63.33
2018-08-17T03:15:02.807Z,63.02
2018-08-17T03:17:31.206Z,62.79
2018-08-17T03:19:59.672Z,62.94
2018-08-17T03:22:28.000Z,63.20
2018-08-17T03:24:56.433Z,63.73
2018-08-17T03:27:25.003Z,64.13
2018-08-17T03:29:53.321Z,64.45
2018-08-17T03:32:21.667Z,64.47
2018-08-17T03:34:50.161Z,64.25
2018-08-17T03:37:18.600Z,63.81
2018-08-17T03:39:46.919Z,63.91
2018-08-17T03:42:15.375Z,63.82
2018-08-17T03:44:43.761Z,63.67
2018-08-17T03:47:12.088Z,64.03
2018-08-17T03:49:40.478Z,64.03
2018-08-17T03:52:08.900Z,63.98
2018-08-17T03:54:37.237Z,64.41
2018-08-17T03:57:05.896Z,64.64
2018-08-17T03:59:34.207Z,64.54
2018-08-17T04:02:02.539Z,64.59
2018-08-17T04:04:30.939Z,64.30
2018-08-17T04:06:59.327Z,64.27
2018-08-17T04:09:27.685Z,64.36
2018-08-17T04:11:56.239Z,64.61
2018-08-17T04:14:24.549Z,64.33
2018-08-17T04:16:52.967Z,64.17
2018-08-17T04:19:21.575Z,64.48
2018-08-17T04:21:49.891Z,63.80
2018-08-17T04:24:18.239Z,64.19
2018-08-17T04:26:46.707Z,64.33
2018-08-17T04:29:15.085Z,64.44
2018-08-17T04:31:43.443Z,64.54
2018-08-17T04:34:11.934Z,64.33
2018-08-17T04:36:40.287Z,64.31
2018-08-17T04:39:08.731Z,64.16
2018-08-17T04:41:37.183Z,64.64
2018-08-17T04:44:05.564Z,64.54
2018-08-17T04:46:33.929Z,64.38
2018-08-17T04:49:02.420Z,64.18
2018-08-17T04:51:30.762Z,63.41
2018-08-17T04:53:59.084Z,63.36
2018-08-17T04:56:27.551Z,63.39
2018-08-17T04:58:55.915Z,63.74
2018-08-17T05:01:24.332Z,64.31
2018-08-17T05:03:52.976Z,63.73
2018-08-17T05:06:21.319Z,64.34
2018-08-17T05:08:49.746Z,64.69
2018-08-17T05:11:18.239Z,64.71
2018-08-17T05:13:46.559Z,64.35
2018-08-17T05:16:14.911Z,64.58
2018-08-17T05:18:43.567Z,64.70
2018-08-17T05:21:11.962Z,65.05
2018-08-17T05:23:40.320Z,65.52
2018-08-17T05:26:08.764Z,65.08
2018-08-17T05:28:37.099Z,64.71
2018-08-17T05:31:05.731Z,64.36
2018-08-17T05:33:34.259Z,64.38
2018-08-17T05:36:02.650Z,64.72
2018-08-17T05:38:31.027Z,64.99
2018-08-17T05:40:59.687Z,64.90
2018-08-17T05:43:28.004Z,64.74
2018-08-17T05:45:56.505Z,64.57
2018-08-17T05:48:24.867Z,64.77
2018-08-17T05:50:53.228Z,64.93
2018-08-17T05:53:21.699Z,64.35
2018-08-17T05:55:50.188Z,63.96
2018-08-17T05:58:18.555Z,64.40
2018-08-17T06:00:46.976Z,64.40
2018-08-17T06:03:15.512Z,64.35
2018-08-17T06:05:43.890Z,64.39
2018-08-17T06:08:12.268Z,64.75
2018-08-17T06:10:40.855Z,64.63
2018-08-17T06:13:09.219Z,65.05
2018-08-17T06:15:37.573Z,65.09
2018-08-17T06:18:06.140Z,65.63
2018-08-17T06:20:34.579Z,66.17
2018-08-17T06:23:02.956Z,65.62
2018-08-17T06:25:31.538Z,65.99
2018-08-17T06:27:59.926Z,65.96
2018-08-17T06:30:28.291Z,66.05
2018-08-17T06:32:56.772Z,65.99
2018-08-17T06:35:25.171Z,65.74
2018-08-17T06:37:53.596Z,65.06
2018-08-17T06:40:22.200Z,65.56
2018-08-17T06:42:50.605Z,65.09
2018-08-17T06:45:19.114Z,65.15
2018-08-17T06:47:47.643Z,65.03
2018-08-17T06:50:15.999Z,64.62
2018-08-17T06:52:44.351Z,64.61
2018-08-17T06:55:13.099Z,64.40
2018-08-17T06:57:41.645Z,64.14
2018-08-17T07:00:14.369Z,64.41
2018-08-17T07:02:43.741Z,63.95
2018-08-17T07:05:12.274Z,63.59
2018-08-17T07:07:41.133Z,63.45
2018-08-17T07:10:11.676Z,63.47
2018-08-17T07:12:40.627Z,63.06
2018-08-17T07:15:09.338Z,63.02
2018-08-17T07:17:37.949Z,63.04
2018-08-17T07:20:07.865Z,63.23
2018-08-17T07:22:36.524Z,62.79
2018-08-17T07:25:05.563Z,62.97
2018-08-17T07:27:34.034Z,62.51
2018-08-17T07:30:02.566Z,62.32
2018-08-17T07:32:31.325Z,61.72
2018-08-17T07:34:59.926Z,61.79
2018-08-17T07:37:28.606Z,61.67
2018-08-17T07:39:57.007Z,61.90
2018-08-17T07:42:25.526Z,61.68
2018-08-17T07:44:54.107Z,61.78
2018-08-17T07:47:22.507Z,61.52
2018-08-17T07:49:50.941Z,61.59
2018-08-17T07:52:19.423Z,61.61
2018-08-17T07:54:47.856Z,61.42
2018-08-17T07:57:16.184Z,61.16
2018-08-17T07:59:44.984Z,60.98
2018-08-17T08:02:13.334Z,60.25
2018-08-17T08:04:41.685Z,59.92
2018-08-17T08:07:10.172Z,60.28
2018-08-17T08:09:38.645Z,60.56
2018-08-17T08:12:07.292Z,59.32
2018-08-17T08:14:35.853Z,59.29
2018-08-17T08:17:04.340Z,58.12
2018-08-17T08:19:32.812Z,58.23
2018-08-17T08:22:01.372Z,58.18
2018-08-17T08:24:30.548Z,58.47
2018-08-17T08:26:58.897Z,58.09
2018-08-17T08:29:27.453Z,57.19
2018-08-17T08:31:55.832Z,56.91
2018-08-17T08:34:24.228Z,56.58
2018-08-17T08:36:52.624Z,56.81
2018-08-17T08:39:21.030Z,56.65
2018-08-17T08:41:49.400Z,56.73
2018-08-17T08:44:18.056Z,55.97
2018-08-17T08:46:46.409Z,54.54
2018-08-17T08:49:14.894Z,53.78
2018-08-17T08:51:43.292Z,55.25
2018-08-17T08:54:11.652Z,54.71
2018-08-17T08:56:39.996Z,54.08
2018-08-17T08:59:08.620Z,54.54
2018-08-17T09:01:37.009Z,54.41
2018-08-17T09:04:05.348Z,54.06
2018-08-17T09:06:33.847Z,54.17
2018-08-17T09:09:03.041Z,54.49
2018-08-17T09:11:31.521Z,54.80
2018-08-17T09:14:00.072Z,54.94
2018-08-17T09:16:28.613Z,54.97
2018-08-17T09:18:56.991Z,53.95
2018-08-17T09:21:25.479Z,54.20
2018-08-17T09:23:54.200Z,53.31
2018-08-17T09:26:22.782Z,53.20
2018-08-17T09:28:51.156Z,51.91
2018-08-17T09:31:19.486Z,51.83
2018-08-17T09:33:47.832Z,52.58
2018-08-17T09:36:16.328Z,52.42
2018-08-17T09:38:44.668Z,52.45
2018-08-17T09:41:13.020Z,52.14
2018-08-17T09:43:41.504Z,51.77
2018-08-17T09:46:09.868Z,51.53
2018-08-17T09:48:38.209Z,51.64
2018-08-17T09:51:06.612Z,51.13
2018-08-17T09:53:35.046Z,51.15
2018-08-17T09:56:03.431Z,50.64
2018-08-17T09:58:31.838Z,51.05
2018-08-17T10:01:05.536Z,51.12
2018-08-17T10:03:39.088Z,50.68
2018-08-17T10:06:12.671Z,48.89
2018-08-17T10:08:46.233Z,48.67
2018-08-17T10:11:14.599Z,49.52
2018-08-17T10:13:43.020Z,49.69
2018-08-17T10:16:11.445Z,49.65
2018-08-17T10:18:44.336Z,49.13
2018-08-17T10:21:14.027Z,48.78
2018-08-17T10:23:42.112Z,47.64
2018-08-17T10:26:10.476Z,47.88
2018-08-17T10:28:38.883Z,47.15
2018-08-17T10:31:07.260Z,47.38
2018-08-17T10:33:35.624Z,48.43
2018-08-17T10:36:08.610Z,47.70
2018-08-17T10:38:37.096Z,48.51
2018-08-17T10:41:05.493Z,47.51
2018-08-17T10:43:33.876Z,46.14
2018-08-17T10:46:02.203Z,46.40
2018-08-17T10:48:30.577Z,45.61
2018-08-17T10:50:58.964Z,45.28
2018-08-17T10:53:36.423Z,45.49
2018-08-17T10:56:05.089Z,44.41
2018-08-17T10:58:34.373Z,44.05
2018-08-17T11:01:02.728Z,45.25
2018-08-17T11:03:31.217Z,44.74
2018-08-17T11:05:59.550Z,43.89
2018-08-17T11:08:27.898Z,43.99
2018-08-17T11:10:56.288Z,44.08
2018-08-17T11:13:24.816Z,43.25
2018-08-17T11:15:53.157Z,43.03
2018-08-17T11:18:21.533Z,42.39
2018-08-17T11:20:49.945Z,43.19
2018-08-17T11:23:18.284Z,43.25
2018-08-17T11:25:46.660Z,43.56
2018-08-17T11:28:15.064Z,42.86
2018-08-17T11:30:43.400Z,42.06
2018-08-17T11:33:11.853Z,42.47
2018-08-17T11:35:40.175Z,42.36
2018-08-17T11:38:08.603Z,42.65
2018-08-17T11:40:37.004Z,41.74
2018-08-17T11:43:05.353Z,40.52
2018-08-17T11:45:34.922Z,41.58
2018-08-17T11:48:03.459Z,41.64
2018-08-17T11:50:32.761Z,41.86
2018-08-17T11:53:01.115Z,41.32
2018-08-17T11:55:31.954Z,39.08
2018-08-17T11:58:01.228Z,40.87
2018-08-17T12:00:34.704Z,40.52
2018-08-17T12:03:03.150Z,38.96
2018-08-17T12:05:31.530Z,39.71
2018-08-17T12:07:59.920Z,39.03
2018-08-17T12:10:28.274Z,39.01
2018-08-17T12:13:03.284Z,39.52
2018-08-17T12:15:32.981Z,39.59
2018-08-17T12:18:01.349Z,38.83
2018-08-17T12:20:30.424Z,38.02
2018-08-17T12:22:58.900Z,38.57
2018-08-17T12:25:27.298Z,38.89
2018-08-17T12:28:01.858Z,39.44
2018-08-17T12:30:30.299Z,38.78
2018-08-17T12:32:58.727Z,37.49
2018-08-17T12:35:27.137Z,37.39
2018-08-17T12:38:00.784Z,35.85
2018-08-17T12:40:36.098Z,34.38
2018-08-17T12:43:04.469Z,35.92
2018-08-17T12:45:32.804Z,37.29
2018-08-17T12:48:01.207Z,38.52
2018-08-17T12:50:29.578Z,38.69
2018-08-17T12:52:57.919Z,37.41
2018-08-17T12:55:26.401Z,37.64
2018-08-17T12:57:54.798Z,36.04
2018-08-17T13:00:23.216Z,37.10
2018-08-17T13:02:51.688Z,36.04
2018-08-17T13:05:20.583Z,34.58
2018-08-17T13:07:48.987Z,35.31
2018-08-17T13:10:17.463Z,33.57
2018-08-17T13:12:53.486Z,33.28
2018-08-17T13:15:21.951Z,33.81
2018-08-17T13:17:50.432Z,33.01
2018-08-17T13:20:19.534Z,34.80
2018-08-17T13:22:48.103Z,34.92
2018-08-17T13:25:16.472Z,34.78
2018-08-17T13:27:44.858Z,34.70
2018-08-17T13:30:14.727Z,35.14
2018-08-17T13:32:43.782Z,35.01
2018-08-17T13:35:12.964Z,34.53
2018-08-17T13:37:41.794Z,32.98
2018-08-17T13:40:11.079Z,34.00
2018-08-17T13:42:39.520Z,34.69
2018-08-17T13:45:09.571Z,34.39
2018-08-17T13:47:37.939Z,34.59
2018-08-17T13:50:06.874Z,33.30
2018-08-17T13:52:35.499Z,32.70
2018-08-17T13:55:03.920Z,33.10
2018-08-17T13:57:32.276Z,33.03
2018-08-17T14:00:00.762Z,31.51
2018-08-17T14:02:29.145Z,32.61
2018-08-17T14:04:57.525Z,32.14
2018-08-17T14:07:25.981Z,31.62
2018-08-17T14:09:54.311Z,31.75
2018-08-17T14:12:22.700Z,31.41
2018-08-17T14:14:51.076Z,30.52
2018-08-17T14:17:19.576Z,30.22
2018-08-17T14:19:48.030Z,31.99
2018-08-17T14:22:16.473Z,32.33
2018-08-17T14:24:44.836Z,31.71
2018-08-17T14:27:13.189Z,31.66
2018-08-17T14:29:41.647Z,32.29
2018-08-17T14:32:10.645Z,31.87
2018-08-17T14:34:39.344Z,32.81
2018-08-17T14:37:07.900Z,31.61
2018-08-17T14:39:36.304Z,32.57
2018-08-17T14:42:04.775Z,33.13
2018-08-17T14:44:33.153Z,31.52
2018-08-17T14:47:01.521Z,31.99
2018-08-17T14:49:29.906Z,31.95
2018-08-17T14:51:58.548Z,32.09
2018-08-17T14:54:26.826Z,31.97
2018-08-17T14:56:55.256Z,31.72
2018-08-17T14:59:23.832Z,32.17
2018-08-17T15:01:52.184Z,32.44
2018-08-17T15:04:20.544Z,31.88
2018-08-17T15:06:49.112Z,32.00
2018-08-17T15:09:17.548Z,32.11
2018-08-17T15:11:46.115Z,33.04
2018-08-17T15:14:15.215Z,30.52
2018-08-17T15:16:43.940Z,30.85
2018-08-17T15:19:12.468Z,31.04
2018-08-17T15:21:41.467Z,31.82
2018-08-17T15:24:10.418Z,32.24
2018-08-17T15:26:38.899Z,31.49
2018-08-17T15:29:07.448Z,31.17
2018-08-17T15:31:35.931Z,31.48
2018-08-17T15:34:04.421Z,31.47
2018-08-17T15:36:32.808Z,32.77
2018-08-17T15:39:01.153Z,31.52
2018-08-17T15:41:29.617Z,32.51
2018-08-17T15:43:58.178Z,32.64
2018-08-17T15:46:26.741Z,32.18
2018-08-17T15:48:56.565Z,32.38
2018-08-17T15:51:24.956Z,32.71
2018-08-17T15:53:54.614Z,31.83
2018-08-17T15:56:23.758Z,32.42
2018-08-17T15:58:52.248Z,31.45
2018-08-17T16:01:20.701Z,32.30
2018-08-17T16:03:48.999Z,31.46
2018-08-17T16:06:17.692Z,32.01
2018-08-17T16:08:46.168Z,32.11
2018-08-17T16:11:14.592Z,31.92
2018-08-17T16:13:42.987Z,32.13
2018-08-17T16:16:11.533Z,31.82
2018-08-17T16:18:39.882Z,32.28
2018-08-17T16:21:08.320Z,32.31
2018-08-17T16:23:36.688Z,32.13
2018-08-17T16:26:05.185Z,33.01
2018-08-17T16:28:33.611Z,32.67
2018-08-17T16:31:01.979Z,32.17
2018-08-17T16:33:30.364Z,32.46
2018-08-17T16:35:59.075Z,33.23
2018-08-17T16:38:27.513Z,33.35
2018-08-17T16:40:55.928Z,33.23
2018-08-17T16:43:35.788Z,33.28
2018-08-17T16:46:04.168Z,32.52
2018-08-17T16:48:32.548Z,32.71
2018-08-17T16:51:01.024Z,32.46
2018-08-17T16:53:29.514Z,32.41
2018-08-17T16:55:57.876Z,32.96
2018-08-17T16:58:26.384Z,33.92
2018-08-17T17:00:54.931Z,33.47
2018-08-17T17:03:24.293Z,33.16
2018-08-17T17:05:57.800Z,32.86
2018-08-17T17:08:27.090Z,33.24
2018-08-17T17:10:55.484Z,33.32
2018-08-17T17:13:24.308Z,33.55
2018-08-17T17:15:52.716Z,33.13
2018-08-17T17:18:21.141Z,33.06
2018-08-17T17:20:49.684Z,32.98
2018-08-17T17:23:18.299Z,33.88
2018-08-17T17:25:46.778Z,33.72
2018-08-17T17:28:15.509Z,33.69
2018-08-17T17:30:53.797Z,33.75
2018-08-17T17:33:22.657Z,33.98
2018-08-17T17:35:51.109Z,33.71
2018-08-17T17:38:19.521Z,34.62
2018-08-17T17:40:48.244Z,34.59
2018-08-17T17:43:16.694Z,35.13
2018-08-17T17:45:45.138Z,35.41
2018-08-17T17:48:13.787Z,35.73
2018-08-17T17:50:42.148Z,35.36
2018-08-17T17:53:10.544Z,34.98
2018-08-17T17:55:44.460Z,35.06
2018-08-17T17:58:13.585Z,35.15
2018-08-17T18:00:46.173Z,35.51
2018-08-17T18:03:14.612Z,35.69
2018-08-17T18:05:43.218Z,36.50
2018-08-17T18:08:20.181Z,37.40
2018-08-17T18:10:49.061Z,38.77
2018-08-17T18:13:17.444Z,39.65
2018-08-17T18:15:46.011Z,40.50
2018-08-17T18:18:14.428Z,40.97
2018-08-17T18:20:42.934Z,41.90
2018-08-17T18:23:11.379Z,42.69
2018-08-17T18:25:39.872Z,43.19
2018-08-17T18:28:08.315Z,43.36
2018-08-17T18:30:36.773Z,44.50
2018-08-17T18:33:05.189Z,44.60
2018-08-17T18:35:33.550Z,44.88
2018-08-17T18:38:02.019Z,44.56
2018-08-17T18:40:30.638Z,44.91
2018-08-17T18:42:59.010Z,44.51
2018-08-17T18:45:27.571Z,44.41
2018-08-17T18:47:55.929Z,44.57
2018-08-17T18:50:24.295Z,43.89
2018-08-17T18:52:52.996Z,44.40
2018-08-17T18:55:21.337Z,44.05
2018-08-17T18:57:49.695Z,44.14
2018-08-17T19:00:18.293Z,44.28
2018-08-17T19:02:46.711Z,44.42
2018-08-17T19:05:15.132Z,44.78
2018-08-17T19:07:43.651Z,44.64
2018-08-17T19:10:12.101Z,45.56
2018-08-17T19:12:40.487Z,45.62
2018-08-17T19:15:11.611Z,46.42
2018-08-17T19:17:40.443Z,46.46
2018-08-17T19:20:11.611Z,46.13
2018-08-17T19:22:42.867Z,47.01
2018-08-17T19:25:13.022Z,46.62
2018-08-17T19:27:41.962Z,47.31
2018-08-17T19:30:25.733Z,46.83
2018-08-17T19:32:55.475Z,46.74
2018-08-17T19:35:23.913Z,46.37
2018-08-17T19:37:53.130Z,46.57
2018-08-17T19:40:22.589Z,46.12
2018-08-17T19:42:51.005Z,46.40
2018-08-17T19:45:20.054Z,46.08
2018-08-17T19:47:48.448Z,45.92
2018-08-17T19:50:16.801Z,45.72
2018-08-17T19:52:45.303Z,46.20
2018-08-17T19:55:13.637Z,46.00
2018-08-17T19:57:42.071Z,46.64
2018-08-17T20:00:11.659Z,46.78
2018-08-17T20:02:40.228Z,46.76
2018-08-17T20:05:08.704Z,46.56
2018-08-17T20:07:37.685Z,47.54
2018-08-17T20:10:06.394Z,47.71
2018-08-17T20:12:34.756Z,47.54
2018-08-17T20:15:04.932Z,47.77
2018-08-17T20:17:33.336Z,48.23
2018-08-17T20:20:01.823Z,48.44
2018-08-17T20:22:30.293Z,48.71
2018-08-17T20:24:58.744Z,48.90
2018-08-17T20:27:27.260Z,49.31
2018-08-17T20:30:00.716Z,49.46
2018-08-17T20:32:29.250Z,49.43
2018-08-17T20:34:57.617Z,49.24
2018-08-17T20:37:26.139Z,49.34
2018-08-17T20:39:54.509Z,49.63
2018-08-17T20:42:22.869Z,49.37
2018-08-17T20:44:51.417Z,49.75
2018-08-17T20:47:19.834Z,49.72
2018-08-17T20:49:48.206Z,49.59
2018-08-17T20:52:16.606Z,49.64
2018-08-17T20:54:44.963Z,49.84
2018-08-17T20:57:13.320Z,49.65
2018-08-17T20:59:41.908Z,49.76
2018-08-17T21:02:10.242Z,49.53
2018-08-17T21:04:38.572Z,49.80
2018-08-17T21:07:07.420Z,49.75
2018-08-17T21:09:35.805Z,49.73
2018-08-17T21:12:04.208Z,50.06
2018-08-17T21:14:32.760Z,50.14
2018-08-17T21:17:01.124Z,49.95
2018-08-17T21:19:34.738Z,50.37
2018-08-17T21:22:03.116Z,50.51
2018-08-17T21:24:31.444Z,50.99
2018-08-17T21:26:59.940Z,50.47
2018-08-17T21:29:28.530Z,50.37
2018-08-17T21:31:56.724Z,50.84
2018-08-17T21:34:25.118Z,51.08
2018-08-17T21:36:54.192Z,51.68
2018-08-17T21:39:22.604Z,51.64
2018-08-17T21:41:51.077Z,52.06
2018-08-17T21:44:20.656Z,52.40
2018-08-17T21:46:55.844Z,52.57
2018-08-17T21:49:25.376Z,52.21
2018-08-17T21:51:57.348Z,52.87
2018-08-17T21:54:25.748Z,53.24
2018-08-17T21:56:54.934Z,53.02
2018-08-17T21:59:23.374Z,53.31
2018-08-17T22:01:51.777Z,53.09
2018-08-17T22:04:20.153Z,52.30
2018-08-17T22:06:48.591Z,52.54
2018-08-17T22:09:26.957Z,52.77
2018-08-17T22:11:55.333Z,52.64
2018-08-17T22:14:23.675Z,52.85
2018-08-17T22:16:52.016Z,52.81
2018-08-17T22:19:31.803Z,53.25
2018-08-17T22:22:00.148Z,53.47
2018-08-17T22:24:28.564Z,53.38
2018-08-17T22:26:57.000Z,54.35
2018-08-17T22:29:25.424Z,53.86
2018-08-17T22:31:53.962Z,53.89
2018-08-17T22:34:22.428Z,53.06
2018-08-17T22:36:50.764Z,53.05
2018-08-17T22:39:19.098Z,52.90
2018-08-17T22:41:47.524Z,52.11
2018-08-17T22:44:20.932Z,52.27
2018-08-17T22:46:59.287Z,51.62
2018-08-17T22:49:27.621Z,52.20
2018-08-17T22:51:56.025Z,52.46
2018-08-17T22:54:24.466Z,52.40
2018-08-17T22:56:52.803Z,52.56
2018-08-17T22:59:21.140Z,52.51
2018-08-17T23:01:49.540Z,52.41
2018-08-17T23:04:17.912Z,51.94
2018-08-17T23:06:46.407Z,52.36
2018-08-17T23:09:14.670Z,51.78
2018-08-17T23:11:43.056Z,51.96
2018-08-17T23:14:15.020Z,52.17
2018-08-17T23:16:44.672Z,52.09
2018-08-17T23:19:13.008Z,52.68
2018-08-17T23:21:41.383Z,52.98
2018-08-17T23:24:10.424Z,53.46
2018-08-17T23:26:38.771Z,53.65
2018-08-17T23:29:07.840Z,54.20
2018-08-17T23:31:36.322Z,54.33
2018-08-17T23:34:04.768Z,54.64
2018-08-17T23:36:33.148Z,54.70
2018-08-17T23:39:01.624Z,54.64
2018-08-17T23:41:29.977Z,55.15
2018-08-17T23:43:58.335Z,54.88
2018-08-17T23:46:26.804Z,54.79
2018-08-17T23:48:55.120Z,54.95
2018-08-17T23:51:23.474Z,54.69
2018-08-17T23:53:51.872Z,54.29
2018-08-17T23:56:20.242Z,54.33
2018-08-17T23:58:48.580Z,53.93
